sensor_id;sensor_type;location;lat;lon;timestamp;P1;durP1;ratioP1;P2;durP2;ratioP2
40827;SDS011;26549;50.918;5.338;2023-03-20T00:01:16;6.03;;;3.05;;
40827;SDS011;26549;50.918;5.338;2023-03-20T00:03:48;6.13;;;3.40;;
40827;SDS011;26549;50.918;5.338;2023-03-20T00:06:19;5.43;;;3.40;;
40827;SDS011;26549;50.918;5.338;2023-03-20T00:08:50;7.78;;;3.88;;
40827;SDS011;26549;50.918;5.338;2023-03-20T00:13:58;4.47;;;2.83;;
40827;SDS011;26549;50.918;5.338;2023-03-20T00:16:30;4.53;;;3.00;;
40827;SDS011;26549;50.918;5.338;2023-03-20T00:18:58;5.57;;;2.80;;
40827;SDS011;26549;50.918;5.338;2023-03-20T00:21:24;3.70;;;2.42;;
40827;SDS011;26549;50.918;5.338;2023-03-20T00:23:52;6.82;;;2.53;;
40827;SDS011;26549;50.918;5.338;2023-03-20T00:26:18;4.50;;;2.55;;
40827;SDS011;26549;50.918;5.338;2023-03-20T00:28:48;6.43;;;2.78;;
40827;SDS011;26549;50.918;5.338;2023-03-20T00:33:48;6.30;;;3.67;;
40827;SDS011;26549;50.918;5.338;2023-03-20T00:36:14;10.48;;;4.28;;
40827;SDS011;26549;50.918;5.338;2023-03-20T00:38:40;6.70;;;4.57;;
40827;SDS011;26549;50.918;5.338;2023-03-20T00:41:40;7.25;;;5.25;;
40827;SDS011;26549;50.918;5.338;2023-03-20T00:44:08;10.43;;;5.93;;
40827;SDS011;26549;50.918;5.338;2023-03-20T00:46:47;10.15;;;5.88;;
40827;SDS011;26549;50.918;5.338;2023-03-20T00:49:15;11.70;;;6.13;;
40827;SDS011;26549;50.918;5.338;2023-03-20T00:51:41;11.45;;;6.10;;
40827;SDS011;26549;50.918;5.338;2023-03-20T00:54:14;8.55;;;5.53;;
40827;SDS011;26549;50.918;5.338;2023-03-20T00:56:43;13.47;;;7.50;;
40827;SDS011;26549;50.918;5.338;2023-03-20T00:59:18;11.23;;;7.20;;
40827;SDS011;26549;50.918;5.338;2023-03-20T01:01:46;11.30;;;6.28;;
40827;SDS011;26549;50.918;5.338;2023-03-20T01:04:15;15.48;;;7.75;;
40827;SDS011;26549;50.918;5.338;2023-03-20T01:06:43;12.95;;;7.22;;
40827;SDS011;26549;50.918;5.338;2023-03-20T01:09:10;10.35;;;7.18;;
40827;SDS011;26549;50.918;5.338;2023-03-20T01:11:39;12.10;;;7.15;;
40827;SDS011;26549;50.918;5.338;2023-03-20T01:14:05;10.88;;;6.60;;
40827;SDS011;26549;50.918;5.338;2023-03-20T01:16:38;12.85;;;7.85;;
40827;SDS011;26549;50.918;5.338;2023-03-20T01:19:05;14.93;;;7.65;;
40827;SDS011;26549;50.918;5.338;2023-03-20T01:21:32;13.65;;;7.70;;
40827;SDS011;26549;50.918;5.338;2023-03-20T01:23:59;13.90;;;8.82;;
40827;SDS011;26549;50.918;5.338;2023-03-20T01:26:36;13.57;;;7.32;;
40827;SDS011;26549;50.918;5.338;2023-03-20T01:29:11;10.13;;;6.80;;
40827;SDS011;26549;50.918;5.338;2023-03-20T01:31:45;10.55;;;6.53;;
40827;SDS011;26549;50.918;5.338;2023-03-20T01:34:15;9.65;;;5.68;;
40827;SDS011;26549;50.918;5.338;2023-03-20T01:36:45;9.88;;;6.25;;
40827;SDS011;26549;50.918;5.338;2023-03-20T01:39:20;9.57;;;5.75;;
40827;SDS011;26549;50.918;5.338;2023-03-20T01:41:48;10.27;;;6.25;;
40827;SDS011;26549;50.918;5.338;2023-03-20T01:44:19;9.35;;;6.25;;
40827;SDS011;26549;50.918;5.338;2023-03-20T01:46:47;10.73;;;5.45;;
40827;SDS011;26549;50.918;5.338;2023-03-20T01:51:50;7.47;;;4.95;;
40827;SDS011;26549;50.918;5.338;2023-03-20T01:54:51;7.97;;;5.45;;
40827;SDS011;26549;50.918;5.338;2023-03-20T01:57:11;11.13;;;5.63;;
40827;SDS011;26549;50.918;5.338;2023-03-20T01:59:47;8.20;;;4.95;;
40827;SDS011;26549;50.918;5.338;2023-03-20T02:02:20;7.13;;;4.90;;
40827;SDS011;26549;50.918;5.338;2023-03-20T02:04:51;8.48;;;5.32;;
40827;SDS011;26549;50.918;5.338;2023-03-20T02:07:20;8.10;;;4.63;;
40827;SDS011;26549;50.918;5.338;2023-03-20T02:09:49;6.68;;;4.65;;
40827;SDS011;26549;50.918;5.338;2023-03-20T02:12:16;9.90;;;5.25;;
40827;SDS011;26549;50.918;5.338;2023-03-20T02:14:46;6.05;;;4.70;;
40827;SDS011;26549;50.918;5.338;2023-03-20T02:17:12;12.20;;;5.35;;
40827;SDS011;26549;50.918;5.338;2023-03-20T02:25:38;8.48;;;5.68;;
40827;SDS011;26549;50.918;5.338;2023-03-20T02:28:36;10.57;;;4.88;;
40827;SDS011;26549;50.918;5.338;2023-03-20T02:31:42;8.02;;;4.22;;
40827;SDS011;26549;50.918;5.338;2023-03-20T02:34:37;10.00;;;4.90;;
40827;SDS011;26549;50.918;5.338;2023-03-20T02:48:09;11.73;;;5.63;;
40827;SDS011;26549;50.918;5.338;2023-03-20T02:56:45;9.07;;;5.30;;
40827;SDS011;26549;50.918;5.338;2023-03-20T02:59:34;6.60;;;4.07;;
40827;SDS011;26549;50.918;5.338;2023-03-20T03:02:09;7.43;;;4.80;;
40827;SDS011;26549;50.918;5.338;2023-03-20T03:04:40;9.00;;;4.28;;
40827;SDS011;26549;50.918;5.338;2023-03-20T03:07:12;9.60;;;4.70;;
40827;SDS011;26549;50.918;5.338;2023-03-20T03:09:47;9.10;;;5.40;;
40827;SDS011;26549;50.918;5.338;2023-03-20T03:12:22;6.88;;;3.90;;
40827;SDS011;26549;50.918;5.338;2023-03-20T03:14:54;8.27;;;4.63;;
40827;SDS011;26549;50.918;5.338;2023-03-20T03:17:25;9.07;;;4.93;;
40827;SDS011;26549;50.918;5.338;2023-03-20T03:19:57;12.77;;;4.97;;
40827;SDS011;26549;50.918;5.338;2023-03-20T03:22:29;9.73;;;5.30;;
40827;SDS011;26549;50.918;5.338;2023-03-20T03:24:59;9.55;;;5.15;;
40827;SDS011;26549;50.918;5.338;2023-03-20T03:30:12;9.77;;;4.68;;
40827;SDS011;26549;50.918;5.338;2023-03-20T03:32:54;9.25;;;5.60;;
40827;SDS011;26549;50.918;5.338;2023-03-20T03:35:37;6.25;;;4.25;;
40827;SDS011;26549;50.918;5.338;2023-03-20T03:38:19;8.15;;;4.38;;
40827;SDS011;26549;50.918;5.338;2023-03-20T03:46:55;6.32;;;4.75;;
40827;SDS011;26549;50.918;5.338;2023-03-20T03:49:31;11.82;;;5.05;;
40827;SDS011;26549;50.918;5.338;2023-03-20T03:52:07;11.60;;;5.68;;
40827;SDS011;26549;50.918;5.338;2023-03-20T03:54:40;9.23;;;4.88;;
40827;SDS011;26549;50.918;5.338;2023-03-20T03:57:20;9.50;;;5.75;;
40827;SDS011;26549;50.918;5.338;2023-03-20T04:00:02;10.10;;;5.07;;
40827;SDS011;26549;50.918;5.338;2023-03-20T04:02:31;8.32;;;5.10;;
40827;SDS011;26549;50.918;5.338;2023-03-20T04:04:58;6.97;;;4.47;;
40827;SDS011;26549;50.918;5.338;2023-03-20T04:07:29;13.27;;;5.32;;
40827;SDS011;26549;50.918;5.338;2023-03-20T04:09:56;9.13;;;5.75;;
40827;SDS011;26549;50.918;5.338;2023-03-20T04:14:51;9.93;;;5.10;;
40827;SDS011;26549;50.918;5.338;2023-03-20T04:17:18;7.80;;;4.68;;
40827;SDS011;26549;50.918;5.338;2023-03-20T04:19:44;10.35;;;6.32;;
40827;SDS011;26549;50.918;5.338;2023-03-20T04:22:10;10.18;;;5.40;;
40827;SDS011;26549;50.918;5.338;2023-03-20T04:24:37;8.02;;;5.03;;
40827;SDS011;26549;50.918;5.338;2023-03-20T04:27:02;11.35;;;5.65;;
40827;SDS011;26549;50.918;5.338;2023-03-20T04:29:28;10.05;;;6.25;;
40827;SDS011;26549;50.918;5.338;2023-03-20T04:31:54;10.68;;;6.15;;
40827;SDS011;26549;50.918;5.338;2023-03-20T04:34:21;9.32;;;6.00;;
40827;SDS011;26549;50.918;5.338;2023-03-20T04:36:47;19.02;;;6.47;;
40827;SDS011;26549;50.918;5.338;2023-03-20T04:39:15;12.45;;;6.68;;
40827;SDS011;26549;50.918;5.338;2023-03-20T04:41:41;14.05;;;8.70;;
40827;SDS011;26549;50.918;5.338;2023-03-20T04:44:07;10.68;;;6.47;;
40827;SDS011;26549;50.918;5.338;2023-03-20T04:46:33;12.77;;;7.80;;
40827;SDS011;26549;50.918;5.338;2023-03-20T04:48:58;13.25;;;7.00;;
40827;SDS011;26549;50.918;5.338;2023-03-20T04:51:24;9.52;;;6.47;;
40827;SDS011;26549;50.918;5.338;2023-03-20T04:53:51;15.32;;;8.85;;
40827;SDS011;26549;50.918;5.338;2023-03-20T04:56:17;14.75;;;7.18;;
40827;SDS011;26549;50.918;5.338;2023-03-20T04:58:42;13.75;;;7.43;;
40827;SDS011;26549;50.918;5.338;2023-03-20T05:01:08;16.25;;;7.22;;
40827;SDS011;26549;50.918;5.338;2023-03-20T05:03:35;17.75;;;9.15;;
40827;SDS011;26549;50.918;5.338;2023-03-20T05:06:01;14.73;;;7.63;;
40827;SDS011;26549;50.918;5.338;2023-03-20T05:08:27;13.13;;;7.97;;
40827;SDS011;26549;50.918;5.338;2023-03-20T05:10:52;17.02;;;7.93;;
40827;SDS011;26549;50.918;5.338;2023-03-20T05:13:18;15.25;;;8.82;;
40827;SDS011;26549;50.918;5.338;2023-03-20T05:15:44;15.02;;;8.75;;
40827;SDS011;26549;50.918;5.338;2023-03-20T05:18:12;16.42;;;7.60;;
40827;SDS011;26549;50.918;5.338;2023-03-20T05:20:38;17.40;;;7.60;;
40827;SDS011;26549;50.918;5.338;2023-03-20T05:23:05;15.73;;;8.23;;
40827;SDS011;26549;50.918;5.338;2023-03-20T05:25:32;14.35;;;9.02;;
40827;SDS011;26549;50.918;5.338;2023-03-20T05:27:58;17.90;;;8.60;;
40827;SDS011;26549;50.918;5.338;2023-03-20T05:30:25;17.95;;;10.13;;
40827;SDS011;26549;50.918;5.338;2023-03-20T05:32:51;17.95;;;9.23;;
40827;SDS011;26549;50.918;5.338;2023-03-20T05:35:17;16.50;;;9.20;;
40827;SDS011;26549;50.918;5.338;2023-03-20T05:37:43;19.88;;;8.77;;
40827;SDS011;26549;50.918;5.338;2023-03-20T05:40:12;19.73;;;8.40;;
40827;SDS011;26549;50.918;5.338;2023-03-20T05:42:39;23.52;;;9.30;;
40827;SDS011;26549;50.918;5.338;2023-03-20T05:45:07;16.63;;;8.35;;
40827;SDS011;26549;50.918;5.338;2023-03-20T05:47:33;17.42;;;8.00;;
40827;SDS011;26549;50.918;5.338;2023-03-20T05:49:58;17.30;;;9.82;;
40827;SDS011;26549;50.918;5.338;2023-03-20T05:52:26;15.82;;;9.13;;
40827;SDS011;26549;50.918;5.338;2023-03-20T05:54:52;13.65;;;8.07;;
40827;SDS011;26549;50.918;5.338;2023-03-20T05:57:17;20.20;;;9.38;;
40827;SDS011;26549;50.918;5.338;2023-03-20T05:59:43;22.13;;;9.05;;
40827;SDS011;26549;50.918;5.338;2023-03-20T06:02:09;16.08;;;7.82;;
40827;SDS011;26549;50.918;5.338;2023-03-20T06:04:35;18.80;;;8.82;;
40827;SDS011;26549;50.918;5.338;2023-03-20T06:07:02;15.35;;;8.43;;
40827;SDS011;26549;50.918;5.338;2023-03-20T06:09:29;16.10;;;8.50;;
40827;SDS011;26549;50.918;5.338;2023-03-20T06:11:54;18.23;;;8.35;;
40827;SDS011;26549;50.918;5.338;2023-03-20T06:14:20;16.10;;;7.75;;
40827;SDS011;26549;50.918;5.338;2023-03-20T06:16:46;16.02;;;7.82;;
40827;SDS011;26549;50.918;5.338;2023-03-20T06:19:13;16.70;;;7.80;;
40827;SDS011;26549;50.918;5.338;2023-03-20T06:21:39;13.90;;;8.13;;
40827;SDS011;26549;50.918;5.338;2023-03-20T06:24:05;14.73;;;7.82;;
40827;SDS011;26549;50.918;5.338;2023-03-20T06:26:31;18.95;;;9.45;;
40827;SDS011;26549;50.918;5.338;2023-03-20T06:28:57;17.55;;;8.68;;
40827;SDS011;26549;50.918;5.338;2023-03-20T06:31:23;17.83;;;8.20;;
40827;SDS011;26549;50.918;5.338;2023-03-20T06:33:48;21.45;;;8.52;;
40827;SDS011;26549;50.918;5.338;2023-03-20T06:36:14;14.45;;;8.02;;
40827;SDS011;26549;50.918;5.338;2023-03-20T06:38:40;24.38;;;9.48;;
40827;SDS011;26549;50.918;5.338;2023-03-20T06:41:06;19.70;;;7.68;;
40827;SDS011;26549;50.918;5.338;2023-03-20T06:43:32;19.88;;;9.38;;
40827;SDS011;26549;50.918;5.338;2023-03-20T06:45:58;15.15;;;7.80;;
40827;SDS011;26549;50.918;5.338;2023-03-20T06:48:23;17.50;;;7.45;;
40827;SDS011;26549;50.918;5.338;2023-03-20T06:50:50;23.80;;;7.78;;
40827;SDS011;26549;50.918;5.338;2023-03-20T06:53:16;17.30;;;7.40;;
40827;SDS011;26549;50.918;5.338;2023-03-20T06:55:45;18.40;;;8.00;;
40827;SDS011;26549;50.918;5.338;2023-03-20T06:58:12;19.92;;;8.70;;
40827;SDS011;26549;50.918;5.338;2023-03-20T07:00:39;18.25;;;8.25;;
40827;SDS011;26549;50.918;5.338;2023-03-20T07:03:06;14.68;;;8.85;;
40827;SDS011;26549;50.918;5.338;2023-03-20T07:05:33;33.25;;;28.40;;
40827;SDS011;26549;50.918;5.338;2023-03-20T07:07:59;16.20;;;8.68;;
40827;SDS011;26549;50.918;5.338;2023-03-20T07:10:25;14.43;;;6.57;;
40827;SDS011;26549;50.918;5.338;2023-03-20T07:12:52;17.23;;;7.93;;
40827;SDS011;26549;50.918;5.338;2023-03-20T07:15:19;15.85;;;6.53;;
40827;SDS011;26549;50.918;5.338;2023-03-20T07:17:45;12.38;;;5.70;;
40827;SDS011;26549;50.918;5.338;2023-03-20T07:20:12;12.75;;;6.47;;
40827;SDS011;26549;50.918;5.338;2023-03-20T07:22:38;12.15;;;6.00;;
40827;SDS011;26549;50.918;5.338;2023-03-20T07:25:06;11.43;;;5.38;;
40827;SDS011;26549;50.918;5.338;2023-03-20T07:27:33;9.57;;;4.40;;
40827;SDS011;26549;50.918;5.338;2023-03-20T07:30:01;14.10;;;4.80;;
40827;SDS011;26549;50.918;5.338;2023-03-20T07:32:27;17.63;;;5.07;;
40827;SDS011;26549;50.918;5.338;2023-03-20T07:34:53;9.23;;;5.65;;
40827;SDS011;26549;50.918;5.338;2023-03-20T07:37:19;16.73;;;4.78;;
40827;SDS011;26549;50.918;5.338;2023-03-20T07:39:45;10.18;;;4.78;;
40827;SDS011;26549;50.918;5.338;2023-03-20T07:42:11;12.10;;;4.57;;
40827;SDS011;26549;50.918;5.338;2023-03-20T07:44:40;9.93;;;3.83;;
40827;SDS011;26549;50.918;5.338;2023-03-20T07:47:06;12.05;;;5.53;;
40827;SDS011;26549;50.918;5.338;2023-03-20T07:49:33;9.00;;;3.17;;
40827;SDS011;26549;50.918;5.338;2023-03-20T07:51:59;9.57;;;3.15;;
40827;SDS011;26549;50.918;5.338;2023-03-20T07:54:26;8.57;;;3.53;;
40827;SDS011;26549;50.918;5.338;2023-03-20T07:56:53;9.60;;;3.67;;
40827;SDS011;26549;50.918;5.338;2023-03-20T07:59:19;9.50;;;3.47;;
40827;SDS011;26549;50.918;5.338;2023-03-20T08:01:45;11.07;;;3.10;;
40827;SDS011;26549;50.918;5.338;2023-03-20T08:04:11;8.23;;;3.63;;
40827;SDS011;26549;50.918;5.338;2023-03-20T08:06:37;8.15;;;2.97;;
40827;SDS011;26549;50.918;5.338;2023-03-20T08:09:04;7.85;;;3.47;;
40827;SDS011;26549;50.918;5.338;2023-03-20T08:11:30;7.22;;;3.10;;
40827;SDS011;26549;50.918;5.338;2023-03-20T08:13:57;13.90;;;3.72;;
40827;SDS011;26549;50.918;5.338;2023-03-20T08:16:23;9.25;;;3.85;;
40827;SDS011;26549;50.918;5.338;2023-03-20T08:18:50;10.52;;;3.17;;
40827;SDS011;26549;50.918;5.338;2023-03-20T08:21:17;11.80;;;3.55;;
40827;SDS011;26549;50.918;5.338;2023-03-20T08:23:44;9.70;;;3.40;;
40827;SDS011;26549;50.918;5.338;2023-03-20T08:26:10;8.02;;;3.10;;
40827;SDS011;26549;50.918;5.338;2023-03-20T08:28:36;11.55;;;3.58;;
40827;SDS011;26549;50.918;5.338;2023-03-20T08:31:06;6.07;;;2.95;;
40827;SDS011;26549;50.918;5.338;2023-03-20T08:33:33;7.72;;;3.83;;
40827;SDS011;26549;50.918;5.338;2023-03-20T08:35:59;6.28;;;3.20;;
40827;SDS011;26549;50.918;5.338;2023-03-20T08:38:25;7.82;;;3.13;;
40827;SDS011;26549;50.918;5.338;2023-03-20T08:40:51;8.95;;;3.45;;
40827;SDS011;26549;50.918;5.338;2023-03-20T08:43:18;9.73;;;3.90;;
40827;SDS011;26549;50.918;5.338;2023-03-20T08:45:45;9.85;;;3.65;;
40827;SDS011;26549;50.918;5.338;2023-03-20T08:48:11;10.20;;;3.65;;
40827;SDS011;26549;50.918;5.338;2023-03-20T08:50:38;9.55;;;3.47;;
40827;SDS011;26549;50.918;5.338;2023-03-20T08:53:04;8.43;;;3.47;;
40827;SDS011;26549;50.918;5.338;2023-03-20T08:55:31;6.47;;;2.97;;
40827;SDS011;26549;50.918;5.338;2023-03-20T08:57:57;10.38;;;3.00;;
40827;SDS011;26549;50.918;5.338;2023-03-20T09:00:23;11.88;;;4.25;;
40827;SDS011;26549;50.918;5.338;2023-03-20T09:02:49;10.93;;;3.08;;
40827;SDS011;26549;50.918;5.338;2023-03-20T09:05:16;4.72;;;2.30;;
40827;SDS011;26549;50.918;5.338;2023-03-20T09:07:42;6.28;;;2.83;;
40827;SDS011;26549;50.918;5.338;2023-03-20T09:10:10;5.97;;;2.92;;
40827;SDS011;26549;50.918;5.338;2023-03-20T09:12:36;7.00;;;2.65;;
40827;SDS011;26549;50.918;5.338;2023-03-20T09:15:03;7.18;;;3.83;;
40827;SDS011;26549;50.918;5.338;2023-03-20T09:17:31;8.88;;;3.15;;
40827;SDS011;26549;50.918;5.338;2023-03-20T09:19:57;5.97;;;2.67;;
40827;SDS011;26549;50.918;5.338;2023-03-20T09:22:23;7.30;;;2.53;;
40827;SDS011;26549;50.918;5.338;2023-03-20T09:24:49;9.45;;;2.97;;
40827;SDS011;26549;50.918;5.338;2023-03-20T09:27:15;9.90;;;2.80;;
40827;SDS011;26549;50.918;5.338;2023-03-20T09:29:42;9.20;;;3.70;;
40827;SDS011;26549;50.918;5.338;2023-03-20T09:32:12;5.28;;;2.22;;
40827;SDS011;26549;50.918;5.338;2023-03-20T09:34:39;6.28;;;2.63;;
40827;SDS011;26549;50.918;5.338;2023-03-20T09:37:05;10.20;;;3.38;;
40827;SDS011;26549;50.918;5.338;2023-03-20T09:39:32;10.02;;;2.80;;
40827;SDS011;26549;50.918;5.338;2023-03-20T09:41:59;8.10;;;3.10;;
40827;SDS011;26549;50.918;5.338;2023-03-20T09:47:37;5.25;;;2.70;;
40827;SDS011;26549;50.918;5.338;2023-03-20T09:50:24;7.43;;;2.92;;
40827;SDS011;26549;50.918;5.338;2023-03-20T09:53:14;9.48;;;3.03;;
40827;SDS011;26549;50.918;5.338;2023-03-20T09:55:49;8.63;;;2.60;;
40827;SDS011;26549;50.918;5.338;2023-03-20T09:58:30;8.30;;;3.03;;
40827;SDS011;26549;50.918;5.338;2023-03-20T10:00:59;8.98;;;2.78;;
40827;SDS011;26549;50.918;5.338;2023-03-20T10:03:31;10.80;;;2.85;;
40827;SDS011;26549;50.918;5.338;2023-03-20T10:06:11;8.82;;;2.67;;
40827;SDS011;26549;50.918;5.338;2023-03-20T10:08:38;7.15;;;3.17;;
40827;SDS011;26549;50.918;5.338;2023-03-20T10:11:07;7.95;;;2.50;;
40827;SDS011;26549;50.918;5.338;2023-03-20T10:19:30;4.78;;;2.58;;
40827;SDS011;26549;50.918;5.338;2023-03-20T10:22:25;5.75;;;2.63;;
40827;SDS011;26549;50.918;5.338;2023-03-20T10:25:02;7.60;;;2.55;;
40827;SDS011;26549;50.918;5.338;2023-03-20T10:39:11;8.80;;;2.88;;
40827;SDS011;26549;50.918;5.338;2023-03-20T10:41:50;7.68;;;2.92;;
40827;SDS011;26549;50.918;5.338;2023-03-20T10:44:42;8.85;;;2.60;;
40827;SDS011;26549;50.918;5.338;2023-03-20T10:47:09;13.63;;;2.58;;
40827;SDS011;26549;50.918;5.338;2023-03-20T10:49:41;9.00;;;2.83;;
40827;SDS011;26549;50.918;5.338;2023-03-20T10:52:15;9.02;;;2.42;;
40827;SDS011;26549;50.918;5.338;2023-03-20T10:54:46;8.88;;;2.78;;
40827;SDS011;26549;50.918;5.338;2023-03-20T10:57:22;7.35;;;2.63;;
40827;SDS011;26549;50.918;5.338;2023-03-20T10:59:51;9.23;;;3.05;;
40827;SDS011;26549;50.918;5.338;2023-03-20T11:02:20;7.65;;;2.28;;
40827;SDS011;26549;50.918;5.338;2023-03-20T11:04:50;7.18;;;2.33;;
40827;SDS011;26549;50.918;5.338;2023-03-20T11:07:32;3.80;;;2.40;;
40827;SDS011;26549;50.918;5.338;2023-03-20T11:12:32;14.05;;;2.70;;
40827;SDS011;26549;50.918;5.338;2023-03-20T11:17:50;9.68;;;2.50;;
40827;SDS011;26549;50.918;5.338;2023-03-20T11:20:18;11.60;;;2.20;;
40827;SDS011;26549;50.918;5.338;2023-03-20T11:22:45;14.85;;;4.38;;
40827;SDS011;26549;50.918;5.338;2023-03-20T11:25:27;7.50;;;3.10;;
40827;SDS011;26549;50.918;5.338;2023-03-20T11:27:57;12.98;;;3.13;;
40827;SDS011;26549;50.918;5.338;2023-03-20T11:30:45;12.23;;;3.88;;
40827;SDS011;26549;50.918;5.338;2023-03-20T11:33:12;4.75;;;2.67;;
40827;SDS011;26549;50.918;5.338;2023-03-20T11:35:43;7.82;;;3.35;;
40827;SDS011;26549;50.918;5.338;2023-03-20T11:38:14;6.55;;;2.60;;
40827;SDS011;26549;50.918;5.338;2023-03-20T11:40:43;10.52;;;3.75;;
40827;SDS011;26549;50.918;5.338;2023-03-20T11:43:13;8.68;;;2.83;;
40827;SDS011;26549;50.918;5.338;2023-03-20T11:46:03;6.85;;;2.60;;
40827;SDS011;26549;50.918;5.338;2023-03-20T11:48:37;10.88;;;2.63;;
40827;SDS011;26549;50.918;5.338;2023-03-20T11:51:09;7.38;;;2.30;;
40827;SDS011;26549;50.918;5.338;2023-03-20T11:53:38;9.25;;;2.63;;
40827;SDS011;26549;50.918;5.338;2023-03-20T11:56:26;8.98;;;2.25;;
40827;SDS011;26549;50.918;5.338;2023-03-20T11:59:08;7.88;;;3.55;;
40827;SDS011;26549;50.918;5.338;2023-03-20T12:01:44;9.90;;;2.55;;
40827;SDS011;26549;50.918;5.338;2023-03-20T12:06:52;7.35;;;2.78;;
40827;SDS011;26549;50.918;5.338;2023-03-20T12:09:26;10.40;;;2.65;;
40827;SDS011;26549;50.918;5.338;2023-03-20T12:20:02;5.80;;;3.08;;
40827;SDS011;26549;50.918;5.338;2023-03-20T12:23:12;6.40;;;2.50;;
40827;SDS011;26549;50.918;5.338;2023-03-20T12:25:39;5.35;;;2.50;;
40827;SDS011;26549;50.918;5.338;2023-03-20T12:28:13;6.13;;;3.10;;
40827;SDS011;26549;50.918;5.338;2023-03-20T12:33:41;9.65;;;1.92;;
40827;SDS011;26549;50.918;5.338;2023-03-20T12:36:12;10.70;;;2.28;;
40827;SDS011;26549;50.918;5.338;2023-03-20T12:38:45;5.78;;;2.05;;
40827;SDS011;26549;50.918;5.338;2023-03-20T12:41:15;8.23;;;3.03;;
40827;SDS011;26549;50.918;5.338;2023-03-20T12:54:31;7.70;;;2.50;;
40827;SDS011;26549;50.918;5.338;2023-03-20T13:00:04;4.75;;;2.42;;
40827;SDS011;26549;50.918;5.338;2023-03-20T13:03:41;8.75;;;2.35;;
40827;SDS011;26549;50.918;5.338;2023-03-20T13:16:57;3.85;;;2.20;;
40827;SDS011;26549;50.918;5.338;2023-03-20T13:27:28;6.55;;;1.90;;
40827;SDS011;26549;50.918;5.338;2023-03-20T13:33:19;7.88;;;2.47;;
40827;SDS011;26549;50.918;5.338;2023-03-20T13:36:02;10.30;;;2.10;;
40827;SDS011;26549;50.918;5.338;2023-03-20T13:38:51;11.68;;;2.90;;
40827;SDS011;26549;50.918;5.338;2023-03-20T13:41:23;8.13;;;2.55;;
40827;SDS011;26549;50.918;5.338;2023-03-20T13:44:00;8.43;;;3.15;;
40827;SDS011;26549;50.918;5.338;2023-03-20T13:46:33;5.20;;;2.85;;
40827;SDS011;26549;50.918;5.338;2023-03-20T13:49:13;5.47;;;2.85;;
40827;SDS011;26549;50.918;5.338;2023-03-20T13:51:46;7.75;;;2.28;;
40827;SDS011;26549;50.918;5.338;2023-03-20T13:54:39;10.30;;;2.90;;
40827;SDS011;26549;50.918;5.338;2023-03-20T13:59:58;6.80;;;3.28;;
40827;SDS011;26549;50.918;5.338;2023-03-20T14:02:59;11.63;;;2.85;;
40827;SDS011;26549;50.918;5.338;2023-03-20T14:05:49;4.85;;;2.33;;
40827;SDS011;26549;50.918;5.338;2023-03-20T14:11:07;6.38;;;2.65;;
40827;SDS011;26549;50.918;5.338;2023-03-20T14:14:05;8.30;;;2.67;;
40827;SDS011;26549;50.918;5.338;2023-03-20T14:16:38;9.60;;;2.88;;
40827;SDS011;26549;50.918;5.338;2023-03-20T14:19:20;12.40;;;2.55;;
40827;SDS011;26549;50.918;5.338;2023-03-20T14:21:50;8.75;;;2.05;;
40827;SDS011;26549;50.918;5.338;2023-03-20T14:24:18;7.45;;;2.40;;
40827;SDS011;26549;50.918;5.338;2023-03-20T14:26:49;10.27;;;2.60;;
40827;SDS011;26549;50.918;5.338;2023-03-20T14:29:29;7.15;;;2.28;;
40827;SDS011;26549;50.918;5.338;2023-03-20T14:32:11;8.45;;;2.83;;
40827;SDS011;26549;50.918;5.338;2023-03-20T14:34:51;11.07;;;2.72;;
40827;SDS011;26549;50.918;5.338;2023-03-20T14:39:53;10.18;;;2.75;;
40827;SDS011;26549;50.918;5.338;2023-03-20T14:42:32;11.65;;;2.30;;
40827;SDS011;26549;50.918;5.338;2023-03-20T14:45:19;9.18;;;2.65;;
40827;SDS011;26549;50.918;5.338;2023-03-20T14:53:25;7.85;;;2.45;;
40827;SDS011;26549;50.918;5.338;2023-03-20T15:03:52;9.48;;;2.47;;
40827;SDS011;26549;50.918;5.338;2023-03-20T15:06:24;7.07;;;2.75;;
40827;SDS011;26549;50.918;5.338;2023-03-20T15:08:53;7.72;;;2.63;;
40827;SDS011;26549;50.918;5.338;2023-03-20T15:11:27;7.03;;;2.40;;
40827;SDS011;26549;50.918;5.338;2023-03-20T15:13:54;8.13;;;3.47;;
40827;SDS011;26549;50.918;5.338;2023-03-20T15:16:29;9.95;;;2.97;;
40827;SDS011;26549;50.918;5.338;2023-03-20T15:18:56;6.78;;;2.08;;
40827;SDS011;26549;50.918;5.338;2023-03-20T15:24:02;6.47;;;2.28;;
40827;SDS011;26549;50.918;5.338;2023-03-20T15:26:31;7.82;;;2.63;;
40827;SDS011;26549;50.918;5.338;2023-03-20T15:28:59;5.97;;;2.75;;
40827;SDS011;26549;50.918;5.338;2023-03-20T15:31:29;6.45;;;2.40;;
40827;SDS011;26549;50.918;5.338;2023-03-20T15:33:59;6.70;;;2.40;;
40827;SDS011;26549;50.918;5.338;2023-03-20T15:36:31;9.65;;;2.20;;
40827;SDS011;26549;50.918;5.338;2023-03-20T15:39:12;13.55;;;3.47;;
40827;SDS011;26549;50.918;5.338;2023-03-20T15:41:49;9.55;;;3.20;;
40827;SDS011;26549;50.918;5.338;2023-03-20T15:44:26;8.30;;;3.85;;
40827;SDS011;26549;50.918;5.338;2023-03-20T15:47:00;9.45;;;2.60;;
40827;SDS011;26549;50.918;5.338;2023-03-20T15:49:36;6.70;;;3.25;;
40827;SDS011;26549;50.918;5.338;2023-03-20T15:52:50;5.85;;;2.75;;
40827;SDS011;26549;50.918;5.338;2023-03-20T15:54:57;5.40;;;2.72;;
40827;SDS011;26549;50.918;5.338;2023-03-20T15:57:32;8.70;;;3.53;;
40827;SDS011;26549;50.918;5.338;2023-03-20T16:00:00;7.82;;;2.95;;
40827;SDS011;26549;50.918;5.338;2023-03-20T16:02:28;7.95;;;2.83;;
40827;SDS011;26549;50.918;5.338;2023-03-20T16:04:54;8.75;;;2.85;;
40827;SDS011;26549;50.918;5.338;2023-03-20T16:07:22;10.15;;;3.05;;
40827;SDS011;26549;50.918;5.338;2023-03-20T16:09:52;6.95;;;3.15;;
40827;SDS011;26549;50.918;5.338;2023-03-20T16:12:18;9.82;;;3.75;;
40827;SDS011;26549;50.918;5.338;2023-03-20T16:14:45;8.02;;;2.80;;
40827;SDS011;26549;50.918;5.338;2023-03-20T16:17:13;8.40;;;2.90;;
40827;SDS011;26549;50.918;5.338;2023-03-20T16:19:41;10.07;;;2.88;;
40827;SDS011;26549;50.918;5.338;2023-03-20T16:24:56;9.30;;;2.78;;
40827;SDS011;26549;50.918;5.338;2023-03-20T16:27:28;7.18;;;2.95;;
40827;SDS011;26549;50.918;5.338;2023-03-20T16:29:57;7.65;;;3.20;;
40827;SDS011;26549;50.918;5.338;2023-03-20T16:32:31;12.27;;;3.03;;
40827;SDS011;26549;50.918;5.338;2023-03-20T16:35:02;11.93;;;3.03;;
40827;SDS011;26549;50.918;5.338;2023-03-20T16:37:37;9.35;;;2.92;;
40827;SDS011;26549;50.918;5.338;2023-03-20T16:42:45;6.65;;;2.92;;
40827;SDS011;26549;50.918;5.338;2023-03-20T16:45:16;10.80;;;3.40;;
40827;SDS011;26549;50.918;5.338;2023-03-20T16:48:06;7.75;;;3.33;;
40827;SDS011;26549;50.918;5.338;2023-03-20T16:50:45;12.93;;;3.15;;
40827;SDS011;26549;50.918;5.338;2023-03-20T16:53:17;11.45;;;3.20;;
40827;SDS011;26549;50.918;5.338;2023-03-20T16:55:45;7.68;;;3.00;;
40827;SDS011;26549;50.918;5.338;2023-03-20T16:58:16;6.50;;;3.72;;
40827;SDS011;26549;50.918;5.338;2023-03-20T17:00:53;9.10;;;2.97;;
40827;SDS011;26549;50.918;5.338;2023-03-20T17:03:30;8.55;;;3.10;;
40827;SDS011;26549;50.918;5.338;2023-03-20T17:08:36;12.73;;;3.28;;
40827;SDS011;26549;50.918;5.338;2023-03-20T17:11:10;12.68;;;4.07;;
40827;SDS011;26549;50.918;5.338;2023-03-20T17:13:40;8.95;;;3.42;;
40827;SDS011;26549;50.918;5.338;2023-03-20T17:16:20;13.40;;;3.60;;
40827;SDS011;26549;50.918;5.338;2023-03-20T17:18:49;11.18;;;3.35;;
40827;SDS011;26549;50.918;5.338;2023-03-20T17:21:24;9.38;;;3.05;;
40827;SDS011;26549;50.918;5.338;2023-03-20T17:23:49;8.25;;;3.70;;
40827;SDS011;26549;50.918;5.338;2023-03-20T17:26:15;9.18;;;3.65;;
40827;SDS011;26549;50.918;5.338;2023-03-20T17:28:41;13.65;;;3.70;;
40827;SDS011;26549;50.918;5.338;2023-03-20T17:31:08;9.60;;;4.03;;
40827;SDS011;26549;50.918;5.338;2023-03-20T17:33:39;5.38;;;3.13;;